| time (UTC) | temp C | wind direction | speed KPH | gust KPH | rain 1hr cm | rain 24hr cm | rain mn cm | humidity % | barometer mb |
| 20260510201559 | 16 | 13 | 3.2 | 12.9 | 0.00 | 0.03 | 0.03 | 74 | 1020.3 |
| 20260510200052 | 16 | 14 | 1.6 | 8.0 | 0.00 | 0.03 | 0.03 | 75 | 1020.5 |
| 20260510194602 | 16 | 0 | 1.6 | 14.5 | 0.00 | 0.03 | 0.03 | 74 | 1020.4 |
| 20260510193055 | 16 | 0 | 1.6 | 14.5 | 0.00 | 0.03 | 0.03 | 75 | 1020.0 |
| 20260510191552 | 16 | 12 | 3.2 | 14.5 | 0.00 | 0.03 | 0.03 | 78 | 1020.4 |
| 20260510190100 | 16 | 14 | 4.8 | 14.5 | 0.00 | 0.03 | 0.03 | 77 | 1019.9 |
| 20260510184546 | 16 | 13 | 4.8 | 17.7 | 0.00 | 0.03 | 0.03 | 76 | 1020.2 |
| 20260510183059 | 15 | 12 | 3.2 | 17.7 | 0.03 | 0.03 | 0.03 | 78 | 1020.6 |
| 20260510181608 | 15 | 10 | 3.2 | 20.9 | 0.03 | 0.03 | 0.03 | 78 | 1019.7 |
| 20260510180055 | 15 | 12 | 4.8 | 16.1 | 0.03 | 0.03 | 0.03 | 79 | 1019.4 |
| 20260510174604 | 16 | 10 | 3.2 | 22.5 | 0.03 | 0.03 | 0.03 | 78 | 1019.5 |
| 20260510173055 | 16 | 14 | 8.0 | 22.5 | 0.00 | 0.00 | 0.00 | 75 | 1020.1 |
| 20260510171620 | 16 | 5 | 6.4 | 25.7 | 0.00 | 0.00 | 0.00 | 76 | 1020.6 |
| 20260510170054 | 17 | 5 | 6.4 | 19.3 | 0.00 | 0.00 | 0.00 | 78 | 1020.3 |
| 20260510164600 | 17 | 10 | 6.4 | 19.3 | 0.00 | 0.00 | 0.00 | 79 | 1019.9 |
| 20260510163100 | 16 | 15 | 3.2 | 14.5 | 0.00 | 0.00 | 0.00 | 80 | 1019.1 |
| 20260510161552 | 16 | 0 | 1.6 | 14.5 | 0.00 | 0.00 | 0.00 | 80 | 1018.5 |
| 20260510160054 | 16 | 0 | 3.2 | 14.5 | 0.00 | 0.00 | 0.00 | 80 | 1018.5 |
| 20260510154558 | 16 | 13 | 4.8 | 19.3 | 0.00 | 0.00 | 0.00 | 80 | 1018.0 |
| 20260510153059 | 16 | 9 | 4.8 | 16.1 | 0.00 | 0.00 | 0.00 | 82 | 1017.6 |
| 20260510151555 | 16 | 11 | 4.8 | 14.5 | 0.00 | 0.00 | 0.00 | 85 | 1017.4 |
| 20260510150057 | 16 | 10 | 0.0 | 4.8 | 0.00 | 0.00 | 0.00 | 86 | 1017.3 |
| 20260510144601 | 16 | 0 | 0.0 | 9.7 | 0.00 | 0.00 | 0.00 | 85 | 1016.9 |
| 20260510143053 | 16 | 0 | 0.0 | 6.4 | 0.00 | 0.00 | 0.00 | 85 | 1016.8 |
| 20260510141552 | 16 | 9 | 3.2 | 16.1 | 0.00 | 0.00 | 0.00 | 85 | 1016.9 |
| 20260510140053 | 16 | 9 | 3.2 | 8.0 | 0.00 | 0.00 | 0.00 | 86 | 1017.1 |
| 20260510134552 | 16 | 11 | 3.2 | 8.0 | 0.00 | 0.00 | 0.00 | 86 | 1017.3 |
| 20260510133047 | 16 | 0 | 0.0 | 4.8 | 0.00 | 0.00 | 0.00 | 86 | 1017.0 |
| 20260510131553 | 16 | 0 | 0.0 | 0.0 | 0.00 | 0.00 | 0.00 | 85 | 1017.2 |
| 20260510130054 | 16 | 0 | 0.0 | 8.0 | 0.00 | 0.00 | 0.00 | 85 | 1017.2 |
| 20260510124548 | 16 | 0 | 0.0 | 0.0 | 0.00 | 0.00 | 0.00 | 85 | 1017.0 |
| 20260510123053 | 16 | 0 | 0.0 | 0.0 | 0.00 | 0.00 | 0.00 | 85 | 1016.0 |
| 20260510121555 | 16 | 0 | 0.0 | 0.0 | 0.00 | 0.00 | 0.00 | 85 | 1015.6 |
| 20260510120054 | 16 | 0 | 0.0 | 0.0 | 0.00 | 0.00 | 0.00 | 84 | 1015.3 |
| 20260510114558 | 16 | 0 | 0.0 | 0.0 | 0.00 | 0.00 | 0.00 | 84 | 1014.5 |
| 20260510113058 | 16 | 0 | 0.0 | 0.0 | 0.00 | 0.00 | 0.00 | 83 | 1014.2 |
| 20260510111551 | 17 | 0 | 0.0 | 0.0 | 0.00 | 0.00 | 0.00 | 82 | 1014.1 |
| 20260510110057 | 17 | 0 | 0.0 | 0.0 | 0.00 | 0.00 | 0.00 | 80 | 1014.0 |
| 20260510104555 | 17 | 0 | 0.0 | 0.0 | 0.00 | 0.00 | 0.00 | 80 | 1013.7 |
| 20260510103054 | 17 | 0 | 0.0 | 0.0 | 0.00 | 0.00 | 0.00 | 79 | 1013.5 |
| 20260510101602 | 17 | 0 | 0.0 | 0.0 | 0.00 | 0.00 | 0.00 | 77 | 1013.4 |
| 20260510100054 | 17 | 0 | 0.0 | 0.0 | 0.00 | 0.00 | 0.00 | 75 | 1013.5 |
| 20260510094555 | 18 | 0 | 0.0 | 0.0 | 0.00 | 0.03 | 0.00 | 75 | 1013.2 |
| 20260510093052 | 18 | 0 | 0.0 | 1.6 | 0.00 | 0.03 | 0.00 | 75 | 1013.0 |
| 20260510091551 | 18 | 0 | 0.0 | 0.0 | 0.00 | 0.03 | 0.00 | 75 | 1012.9 |
| 20260510090114 | 18 | 0 | 0.0 | 0.0 | 0.00 | 0.03 | 0.00 | 75 | 1012.8 |
| 20260510084607 | 18 | 13 | 1.6 | 8.0 | 0.00 | 0.03 | 0.00 | 74 | 1012.5 |
| 20260510083047 | 18 | 13 | 3.2 | 12.9 | 0.00 | 0.03 | 0.00 | 74 | 1011.7 |
| 20260510081547 | 18 | 13 | 3.2 | 16.1 | 0.00 | 0.03 | 0.00 | 75 | 1011.2 |
| 20260510080100 | 18 | 31 | 0.0 | 9.7 | 0.00 | 0.03 | 0.00 | 75 | 1010.2 |
| 20260510074553 | 18 | 29 | 4.8 | 16.1 | 0.00 | 0.03 | 0.00 | 76 | 1009.8 |
| 20260510073055 | 18 | 24 | 1.6 | 17.7 | 0.00 | 0.03 | 0.00 | 75 | 1009.8 |
| 20260510071553 | 18 | 26 | 6.4 | 38.6 | 0.00 | 0.03 | 0.00 | 77 | 1010.8 |
| 20260510070103 | 18 | 23 | 9.7 | 35.4 | 0.00 | 0.03 | 0.00 | 73 | 1010.8 |
| 20260510064549 | 20 | 23 | 8.0 | 30.6 | 0.00 | 0.03 | 0.00 | 67 | 1013.4 |
| 20260510063053 | 20 | 23 | 16.1 | 38.6 | 0.00 | 0.03 | 0.00 | 65 | 1014.5 |
| 20260510061552 | 20 | 27 | 6.4 | 12.9 | 0.00 | 0.03 | 0.00 | 66 | 1014.2 |
| 20260510060056 | 20 | 5 | 3.2 | 8.0 | 0.00 | 0.03 | 0.00 | 67 | 1014.0 |
| 20260510054550 | 20 | 12 | 1.6 | 6.4 | 0.00 | 0.03 | 0.00 | 66 | 1013.9 |
| 20260510053059 | 20 | 12 | 4.8 | 12.9 | 0.00 | 0.03 | 0.00 | 64 | 1014.1 |
| 20260510051607 | 20 | 13 | 3.2 | 16.1 | 0.00 | 0.03 | 0.00 | 66 | 1014.3 |
| 20260510050105 | 20 | 11 | 3.2 | 11.3 | 0.00 | 0.03 | 0.00 | 68 | 1013.8 |
| 20260510044553 | 20 | 19 | 0.0 | 1.6 | 0.00 | 0.03 | 0.03 | 61 | 1012.8 |
| 20260510043054 | 21 | 0 | 0.0 | 1.6 | 0.00 | 0.03 | 0.03 | 62 | 1012.6 |
| 20260510041553 | 21 | 0 | 0.0 | 0.0 | 0.00 | 0.03 | 0.03 | 61 | 1012.4 |
| 20260510040103 | 21 | 0 | 0.0 | 0.0 | 0.00 | 0.03 | 0.03 | 60 | 1012.3 |
| 20260510034553 | 21 | 0 | 0.0 | 1.6 | 0.00 | 0.03 | 0.03 | 60 | 1012.0 |
| 20260510033059 | 21 | 0 | 0.0 | 1.6 | 0.00 | 0.03 | 0.03 | 60 | 1012.0 |
| 20260510031550 | 21 | 0 | 0.0 | 0.0 | 0.00 | 0.03 | 0.03 | 59 | 1012.1 |
| 20260510030058 | 21 | 0 | 0.0 | 1.6 | 0.00 | 0.03 | 0.03 | 60 | 1012.0 |
| 20260510024551 | 21 | 0 | 0.0 | 0.0 | 0.00 | 0.03 | 0.03 | 61 | 1011.9 |
| 20260510023050 | 21 | 0 | 0.0 | 0.0 | 0.00 | 0.03 | 0.03 | 60 | 1011.3 |
| 20260510021642 | 22 | 0 | 0.0 | 0.0 | 0.00 | 0.03 | 0.03 | 58 | 1010.4 |
| 20260510020059 | 22 | 0 | 0.0 | 0.0 | 0.00 | 0.03 | 0.03 | 56 | 1010.2 |
| 20260510014558 | 23 | 0 | 0.0 | 0.0 | 0.00 | 0.30 | 0.03 | 55 | 1010.0 |
| 20260510013101 | 23 | 0 | 0.0 | 0.0 | 0.00 | 0.30 | 0.03 | 52 | 1009.7 |
| 20260510011552 | 24 | 0 | 0.0 | 0.0 | 0.00 | 0.30 | 0.03 | 50 | 1009.6 |
| 20260510010058 | 25 | 0 | 0.0 | 3.2 | 0.00 | 0.30 | 0.03 | 49 | 1009.5 |
| 20260510004552 | 25 | 0 | 0.0 | 4.8 | 0.00 | 1.07 | 0.03 | 47 | 1009.4 |
| 20260510003054 | 25 | 0 | 0.0 | 4.8 | 0.00 | 1.07 | 0.03 | 45 | 1009.3 |
| 20260510001546 | 25 | 23 | 1.6 | 6.4 | 0.00 | 1.07 | 0.03 | 45 | 1009.2 |
| 20260510000052 | 26 | 0 | 0.0 | 4.8 | 0.00 | 1.07 | 0.03 | 47 | 1009.3 |
| 20260509234551 | 26 | 0 | 0.0 | 4.8 | 0.00 | 1.17 | 0.03 | 47 | 1009.3 |
| 20260509233048 | 26 | 0 | 0.0 | 4.8 | 0.00 | 1.17 | 0.03 | 46 | 1009.4 |
| 20260509231551 | 26 | 0 | 0.0 | 4.8 | 0.00 | 1.17 | 0.03 | 45 | 1009.6 |
| 20260509230054 | 26 | 20 | 0.0 | 4.8 | 0.00 | 1.17 | 0.03 | 47 | 1009.6 |
| 20260509224550 | 26 | 21 | 1.6 | 4.8 | 0.00 | 1.17 | 0.03 | 47 | 1009.8 |
| 20260509223054 | 27 | 22 | 0.0 | 3.2 | 0.00 | 1.17 | 0.03 | 44 | 1009.8 |
| 20260509221552 | 27 | 20 | 1.6 | 6.4 | 0.00 | 1.17 | 0.03 | 44 | 1009.8 |
| 20260509220054 | 27 | 20 | 0.0 | 4.8 | 0.00 | 1.17 | 0.03 | 39 | 1009.8 |
| 20260509214549 | 27 | 0 | 0.0 | 6.4 | 0.00 | 1.17 | 0.03 | 38 | 1009.9 |
| 20260509213103 | 27 | 0 | 0.0 | 4.8 | 0.00 | 1.17 | 0.03 | 39 | 1009.9 |
| 20260509211601 | 27 | 20 | 0.0 | 3.2 | 0.00 | 1.17 | 0.03 | 41 | 1010.1 |
| 20260509210053 | 27 | 0 | 0.0 | 6.4 | 0.00 | 1.17 | 0.03 | 39 | 1010.4 |
| 20260509204551 | 27 | 0 | 0.0 | 3.2 | 0.00 | 1.17 | 0.03 | 41 | 1010.5 |
| 20260509203054 | 27 | 0 | 0.0 | 3.2 | 0.00 | 1.17 | 0.03 | 42 | 1010.6 |